Time;durP1;ratioP1;P1;durP2;ratioP2;P2;SDS_P1;SDS_P2;PMS_P1;PMS_P2;Temp;Humidity;BMP_temperature;BMP_pressure;BME280_temperature;BME280_humidity;BME280_pressure;Samples;Min_cycle;Max_cycle;Signal;HPM_P1;HPM_P2
2023/08/16 00:01:00;;;;;;;;;;;;;;;;;;5054498;28;19959;-72
2023/08/16 00:03:26;;;;;;;;;;;;;;;;;;5073103;28;20318;-72
2023/08/16 00:05:52;;;;;;;;;;;;;;;;;;5067031;28;19916;-71
2023/08/16 00:08:18;;;;;;;;;;;;;;;;;;5061085;28;19924;-71
2023/08/16 00:10:44;;;;;;;;;;;;;;;;;;5072828;28;20185;-72
2023/08/16 00:13:10;;;;;;;;;;;;;;;;;;5062422;28;19917;-73
2023/08/16 00:15:36;;;;;;;;;;;;;;;;;;5053258;28;19932;-73
2023/08/16 00:18:02;;;;;;;;;;;;;;;;;;5055889;28;19967;-71
2023/08/16 00:20:28;;;;;;;;;;;;;;;;;;5051897;28;19928;-72
2023/08/16 00:22:54;;;;;;;;;;;;;;;;;;5052178;28;19917;-72
2023/08/16 00:25:20;;;;;;;;;;;;;;;;;;5068389;28;19909;-72
2023/08/16 00:27:46;;;;;;;;;;;;;;;;;;5053063;28;19962;-72
2023/08/16 00:30:12;;;;;;;;;;;;;;;;;;5062093;28;20089;-72
2023/08/16 00:32:38;;;;;;;;;;;;;;;;;;5072942;28;20420;-72
2023/08/16 00:35:04;;;;;;;;;;;;;;;;;;5072489;28;20371;-72
2023/08/16 00:37:30;;;;;;;;;;;;;;;;;;5054007;28;20003;-72
2023/08/16 00:39:56;;;;;;;;;;;;;;;;;;5066767;28;19962;-72
2023/08/16 00:42:22;;;;;;;;;;;;;;;;;;5072206;28;20249;-72
2023/08/16 00:44:48;;;;;;;;;;;;;;;;;;5072668;28;19918;-71
2023/08/16 00:47:14;;;;;;;;;;;;;;;;;;5072638;28;19912;-72
2023/08/16 00:49:41;;;;;;;;;;;;;;;;;;5062949;28;20660;-71
2023/08/16 00:52:07;;;;;;;;;;;;;;;;;;5052413;28;19995;-72
2023/08/16 00:54:33;;;;;;;;;;;;;;;;;;5052553;28;20404;-72
2023/08/16 00:56:59;;;;;;;;;;;;;;;;;;5052395;28;20008;-72
2023/08/16 00:59:25;;;;;;;;;;;;;;;;;;5051172;28;19959;-72
2023/08/16 01:01:51;;;;;;;;;;;;;;;;;;5052450;28;19916;-61
2023/08/16 01:04:16;;;;;;;;;;;;;;;;;;5051795;28;19993;-61
2023/08/16 01:06:42;;;;;;;;;;;;;;;;;;5052434;28;19994;-59
2023/08/16 01:09:08;;;;;;;;;;;;;;;;;;5064683;28;19923;-63
2023/08/16 01:11:34;;;;;;;;;;;;;;;;;;5051654;28;19912;-60
2023/08/16 01:14:00;;;;;;;;;;;;;;;;;;5053659;28;20011;-61
2023/08/16 01:16:26;;;;;;;;;;;;;;;;;;5052392;28;20357;-62
2023/08/16 01:18:52;;;;;;;;;;;;;;;;;;5061504;28;20011;-60
2023/08/16 01:21:18;;;;;;;;;;;;;;;;;;5071880;28;19974;-60
2023/08/16 01:23:44;;;;;;;;;;;;;;;;;;5071681;28;19999;-61
2023/08/16 01:26:10;;;;;;;;;;;;;;;;;;5072359;28;19916;-60
2023/08/16 01:28:35;;;;;;;;;;;;;;;;;;5057901;28;19913;-60
2023/08/16 01:31:01;;;;;;;;;;;;;;;;;;5061089;28;19947;-61
2023/08/16 01:33:27;;;;;;;;;;;;;;;;;;5075659;28;20402;-62
2023/08/16 01:35:53;;;;;;;;;;;;;;;;;;5070758;28;19999;-61
2023/08/16 01:38:19;;;;;;;;;;;;;;;;;;5056049;28;19935;-60
2023/08/16 01:40:45;;;;;;;;;;;;;;;;;;5055771;28;19964;-60
2023/08/16 01:43:11;;;;;;;;;;;;;;;;;;5056005;28;19948;-60
2023/08/16 01:45:37;;;;;;;;;;;;;;;;;;5067521;28;20587;-60
2023/08/16 01:48:03;;;;;;;;;;;;;;;;;;5055843;28;19952;-61
2023/08/16 01:50:29;;;;;;;;;;;;;;;;;;5055347;28;19982;-60
2023/08/16 01:52:55;;;;;;;;;;;;;;;;;;5055758;28;20368;-60
2023/08/16 01:55:21;;;;;;;;;;;;;;;;;;5055681;28;19909;-60
2023/08/16 01:57:46;;;;;;;;;;;;;;;;;;5062084;28;20289;-60
2023/08/16 02:00:12;;;;;;;;;;;;;;;;;;5074822;28;19970;-60
2023/08/16 02:02:38;;;;;;;;;;;;;;;;;;5055355;28;19912;-60
2023/08/16 02:05:04;;;;;;;;;;;;;;;;;;5055669;28;19913;-61
2023/08/16 02:07:30;;;;;;;;;;;;;;;;;;5071098;28;20014;-60
2023/08/16 02:09:56;;;;;;;;;;;;;;;;;;5075292;28;19913;-61
2023/08/16 02:12:22;;;;;;;;;;;;;;;;;;5075507;28;19912;-61
2023/08/16 02:14:48;;;;;;;;;;;;;;;;;;5075423;28;20431;-60
2023/08/16 02:17:15;;;;;;;;;;;;;;;;;;5061761;28;19923;-61
2023/08/16 02:19:41;;;;;;;;;;;;;;;;;;5057615;28;19921;-59
2023/08/16 02:22:07;;;;;;;;;;;;;;;;;;5054768;28;19913;-61
2023/08/16 02:24:33;;;;;;;;;;;;;;;;;;5055294;28;19977;-60
2023/08/16 02:26:58;;;;;;;;;;;;;;;;;;5071786;28;19923;-60
2023/08/16 02:29:24;;;;;;;;;;;;;;;;;;5075198;28;19918;-61
2023/08/16 02:31:50;;;;;;;;;;;;;;;;;;5074674;28;20276;-60
2023/08/16 02:34:16;;;;;;;;;;;;;;;;;;5073724;28;19951;-60
2023/08/16 02:36:42;;;;;;;;;;;;;;;;;;5063703;28;19916;-60
2023/08/16 02:39:08;;;;;;;;;;;;;;;;;;5055125;28;20348;-60
2023/08/16 02:41:35;;;;;;;;;;;;;;;;;;5054536;28;19923;-61
2023/08/16 02:44:00;;;;;;;;;;;;;;;;;;5066215;28;19913;-60
2023/08/16 02:46:26;;;;;;;;;;;;;;;;;;5069233;28;19931;-60
2023/08/16 02:48:52;;;;;;;;;;;;;;;;;;5059220;28;19917;-60
2023/08/16 02:51:18;;;;;;;;;;;;;;;;;;5068080;28;19996;-59
2023/08/16 02:53:44;;;;;;;;;;;;;;;;;;5074245;28;20451;-62
2023/08/16 02:56:10;;;;;;;;;;;;;;;;;;5074687;28;20295;-60
2023/08/16 02:58:36;;;;;;;;;;;;;;;;;;5074699;28;19947;-60
2023/08/16 03:01:02;;;;;;;;;;;;;;;;;;5073055;28;19916;-60
2023/08/16 03:03:28;;;;;;;;;;;;;;;;;;5074579;28;19912;-60
2023/08/16 03:05:53;;;;;;;;;;;;;;;;;;5072481;28;19912;-60
2023/08/16 03:08:19;;;;;;;;;;;;;;;;;;5056140;28;19912;-59
2023/08/16 03:10:45;;;;;;;;;;;;;;;;;;5065274;28;19955;-60
2023/08/16 03:13:11;;;;;;;;;;;;;;;;;;5070837;28;19916;-60
2023/08/16 03:15:37;;;;;;;;;;;;;;;;;;5067412;28;19917;-61
2023/08/16 03:18:03;;;;;;;;;;;;;;;;;;5053839;28;19913;-60
2023/08/16 03:20:29;;;;;;;;;;;;;;;;;;5067076;28;19927;-62
2023/08/16 03:22:55;;;;;;;;;;;;;;;;;;5074191;28;19912;-61
2023/08/16 03:25:21;;;;;;;;;;;;;;;;;;5069745;28;20001;-59
2023/08/16 03:27:47;;;;;;;;;;;;;;;;;;5055542;28;19913;-59
2023/08/16 03:30:13;;;;;;;;;;;;;;;;;;5065142;28;20011;-61
2023/08/16 03:32:39;;;;;;;;;;;;;;;;;;5060564;28;20441;-60
2023/08/16 03:35:05;;;;;;;;;;;;;;;;;;5073677;28;20010;-59
2023/08/16 03:37:31;;;;;;;;;;;;;;;;;;5065661;28;20299;-59
2023/08/16 03:39:57;;;;;;;;;;;;;;;;;;5053443;28;20438;-61
2023/08/16 03:42:23;;;;;;;;;;;;;;;;;;5069412;28;19920;-60
2023/08/16 03:44:49;;;;;;;;;;;;;;;;;;5066547;28;20375;-60
2023/08/16 03:47:15;;;;;;;;;;;;;;;;;;5071688;28;19963;-60
2023/08/16 03:49:41;;;;;;;;;;;;;;;;;;5073365;28;19959;-61
2023/08/16 03:52:07;;;;;;;;;;;;;;;;;;5062964;28;20334;-60
2023/08/16 03:54:33;;;;;;;;;;;;;;;;;;5052534;28;19919;-60
2023/08/16 03:56:59;;;;;;;;;;;;;;;;;;5056304;28;20356;-59
2023/08/16 03:59:25;;;;;;;;;;;;;;;;;;5071028;28;19912;-60
2023/08/16 04:01:51;;;;;;;;;;;;;;;;;;5063286;28;19955;-60
2023/08/16 04:04:16;;;;;;;;;;;;;;;;;;5064298;28;20367;-60
2023/08/16 04:06:42;;;;;;;;;;;;;;;;;;5072210;28;19917;-60
2023/08/16 04:09:08;;;;;;;;;;;;;;;;;;5072339;28;19912;-60
2023/08/16 04:11:34;;;;;;;;;;;;;;;;;;5070030;28;20077;-60
2023/08/16 04:14:00;;;;;;;;;;;;;;;;;;5070065;28;19912;-60
2023/08/16 04:16:26;;;;;;;;;;;;;;;;;;5072207;28;20007;-60
2023/08/16 04:18:53;;;;;;;;;;;;;;;;;;5072239;28;20001;-60
2023/08/16 04:21:19;;;;;;;;;;;;;;;;;;5071412;28;19923;-59
2023/08/16 04:23:45;;;;;;;;;;;;;;;;;;5063423;28;19912;-60
2023/08/16 04:26:10;;;;;;;;;;;;;;;;;;5069661;28;20023;-59
2023/08/16 04:28:36;;;;;;;;;;;;;;;;;;5061779;28;20007;-60
2023/08/16 04:31:04;;;;;;;;;;;;;;;;;;5066085;28;19946;-59
2023/08/16 04:33:30;;;;;;;;;;;;;;;;;;5071546;28;20382;-59
2023/08/16 04:35:56;;;;;;;;;;;;;;;;;;5071058;28;19912;-62
2023/08/16 04:38:22;;;;;;;;;;;;;;;;;;5064461;28;19966;-59
2023/08/16 04:40:48;;;;;;;;;;;;;;;;;;5070871;28;20038;-60
2023/08/16 04:43:14;;;;;;;;;;;;;;;;;;5071768;28;19913;-59
2023/08/16 04:45:40;;;;;;;;;;;;;;;;;;5070621;28;20280;-60
2023/08/16 04:48:06;;;;;;;;;;;;;;;;;;5069336;28;19955;-60
2023/08/16 04:50:31;;;;;;;;;;;;;;;;;;5070484;28;19934;-61
2023/08/16 04:52:57;;;;;;;;;;;;;;;;;;5058172;28;19915;-60
2023/08/16 04:55:23;;;;;;;;;;;;;;;;;;5070762;28;20407;-60
2023/08/16 04:57:50;;;;;;;;;;;;;;;;;;5071489;28;19920;-60
2023/08/16 05:00:16;;;;;;;;;;;;;;;;;;5063438;28;19939;-61
2023/08/16 05:02:42;;;;;;;;;;;;;;;;;;5068670;28;20435;-60
2023/08/16 05:05:08;;;;;;;;;;;;;;;;;;5068054;28;19923;-61
2023/08/16 05:07:33;;;;;;;;;;;;;;;;;;5066795;28;20001;-60
2023/08/16 05:09:59;;;;;;;;;;;;;;;;;;5071303;28;19919;-61
2023/08/16 05:12:25;;;;;;;;;;;;;;;;;;5070339;28;20386;-59
2023/08/16 05:14:51;;;;;;;;;;;;;;;;;;5070161;28;19908;-59
2023/08/16 05:17:17;;;;;;;;;;;;;;;;;;5065149;28;19996;-60
2023/08/16 05:19:43;;;;;;;;;;;;;;;;;;5069549;28;19967;-64
2023/08/16 05:22:09;;;;;;;;;;;;;;;;;;5070874;28;20398;-60
2023/08/16 05:24:35;;;;;;;;;;;;;;;;;;5071447;28;19912;-61
2023/08/16 05:27:01;;;;;;;;;;;;;;;;;;5071296;28;19916;-60
2023/08/16 05:29:27;;;;;;;;;;;;;;;;;;5070286;28;19944;-59
2023/08/16 05:31:53;;;;;;;;;;;;;;;;;;5070023;28;20396;-60
2023/08/16 05:34:20;;;;;;;;;;;;;;;;;;5060968;28;19916;-61
2023/08/16 05:36:46;;;;;;;;;;;;;;;;;;5068315;28;19913;-62
2023/08/16 05:39:12;;;;;;;;;;;;;;;;;;5061895;28;19917;-70
2023/08/16 05:41:38;;;;;;;;;;;;;;;;;;5067052;28;19929;-72
2023/08/16 05:44:04;;;;;;;;;;;;;;;;;;5071403;28;19915;-72
2023/08/16 05:46:30;;;;;;;;;;;;;;;;;;5071294;28;19944;-73
2023/08/16 05:48:55;;;;;;;;;;;;;;;;;;5063512;28;20424;-74
2023/08/16 05:51:21;;;;;;;;;;;;;;;;;;5063404;28;19909;-73
2023/08/16 05:53:47;;;;;;;;;;;;;;;;;;5074963;28;19936;-72
2023/08/16 05:56:13;;;;;;;;;;;;;;;;;;5071167;28;19977;-73
2023/08/16 05:58:39;;;;;;;;;;;;;;;;;;5066248;28;20206;-72
2023/08/16 06:01:05;;;;;;;;;;;;;;;;;;5070034;28;19917;-73
2023/08/16 06:03:31;;;;;;;;;;;;;;;;;;5065737;28;19912;-73
2023/08/16 06:05:57;;;;;;;;;;;;;;;;;;5067360;28;19963;-73
2023/08/16 06:08:23;;;;;;;;;;;;;;;;;;5069443;28;19944;-72
2023/08/16 06:10:49;;;;;;;;;;;;;;;;;;5070730;28;19912;-72
2023/08/16 06:13:15;;;;;;;;;;;;;;;;;;5071086;28;19909;-73
2023/08/16 06:15:41;;;;;;;;;;;;;;;;;;5070867;28;19953;-72
2023/08/16 06:18:07;;;;;;;;;;;;;;;;;;5070841;28;20391;-73
2023/08/16 06:20:32;;;;;;;;;;;;;;;;;;5071798;28;19971;-71
2023/08/16 06:22:58;;;;;;;;;;;;;;;;;;5061677;28;19927;-67
2023/08/16 06:25:25;;;;;;;;;;;;;;;;;;5074283;28;19916;-71
2023/08/16 06:27:51;;;;;;;;;;;;;;;;;;5070952;28;19924;-71
2023/08/16 06:30:17;;;;;;;;;;;;;;;;;;5064876;28;19913;-69
2023/08/16 06:32:43;;;;;;;;;;;;;;;;;;5067582;28;19912;-71
2023/08/16 06:35:09;;;;;;;;;;;;;;;;;;5073889;28;19916;-70
2023/08/16 06:37:35;;;;;;;;;;;;;;;;;;5065236;28;19913;-70
2023/08/16 06:40:04;;;;;;;;;;;;;;;;;;5071785;28;20070;-70
2023/08/16 06:42:31;;;;;;;;;;;;;;;;;;5064343;28;19912;-70
2023/08/16 06:44:56;;;;;;;;;;;;;;;;;;5064669;28;19919;-69
2023/08/16 06:47:22;;;;;;;;;;;;;;;;;;5070056;28;19912;-70
2023/08/16 06:49:48;;;;;;;;;;;;;;;;;;5083491;28;20671;-70
2023/08/16 06:52:14;;;;;;;;;;;;;;;;;;5062381;28;19917;-71
2023/08/16 06:54:42;;;;;;;;;;;;;;;;;;5073556;28;19981;-69
2023/08/16 06:57:08;;;;;;;;;;;;;;;;;;5070491;28;19944;-71
2023/08/16 06:59:35;;;;;;;;;;;;;;;;;;5073648;28;19974;-71
2023/08/16 07:02:01;;;;;;;;;;;;;;;;;;5072186;28;19909;-69
2023/08/16 07:04:27;;;;;;;;;;;;;;;;;;5065486;28;19919;-70
2023/08/16 07:06:53;;;;;;;;;;;;;;;;;;5069067;28;20007;-70
2023/08/16 07:09:19;;;;;;;;;;;;;;;;;;5069918;28;19967;-71
2023/08/16 07:11:45;;;;;;;;;;;;;;;;;;5069334;28;19920;-71
2023/08/16 07:14:11;;;;;;;;;;;;;;;;;;5069779;28;19958;-70
2023/08/16 07:16:39;;;;;;;;;;;;;;;;;;5077475;28;20344;-70
2023/08/16 07:19:08;;;;;;;;;;;;;;;;;;5072558;28;19927;-69
2023/08/16 07:21:34;;;;;;;;;;;;;;;;;;5069869;28;19972;-71
2023/08/16 07:24:00;;;;;;;;;;;;;;;;;;5061330;28;19917;-69
2023/08/16 07:26:26;;;;;;;;;;;;;;;;;;5071171;28;19951;-70
2023/08/16 07:28:52;;;;;;;;;;;;;;;;;;5066350;28;19971;-70
2023/08/16 07:31:18;;;;;;;;;;;;;;;;;;5065168;28;19913;-70
2023/08/16 07:33:44;;;;;;;;;;;;;;;;;;5065406;28;19916;-68
2023/08/16 07:36:10;;;;;;;;;;;;;;;;;;5070706;28;19967;-68
2023/08/16 07:38:35;;;;;;;;;;;;;;;;;;5069555;28;19917;-71
2023/08/16 07:41:01;;;;;;;;;;;;;;;;;;5068143;28;20390;-70
2023/08/16 07:43:28;;;;;;;;;;;;;;;;;;5059574;28;19909;-68
2023/08/16 07:45:54;;;;;;;;;;;;;;;;;;5065654;28;20396;-70
2023/08/16 07:48:20;;;;;;;;;;;;;;;;;;5058084;28;19960;-65
2023/08/16 07:50:45;;;;;;;;;;;;;;;;;;5058887;28;21028;-70
2023/08/16 07:53:11;;;;;;;;;;;;;;;;;;5071493;28;19909;-71
2023/08/16 07:55:37;;;;;;;;;;;;;;;;;;5072238;28;19947;-71
2023/08/16 07:58:03;;;;;;;;;;;;;;;;;;5067739;28;19922;-59
2023/08/16 08:00:29;;;;;;;;;;;;;;;;;;5058026;28;19924;-61
2023/08/16 08:02:55;;;;;;;;;;;;;;;;;;5060868;28;19944;-61
2023/08/16 08:05:21;;;;;;;;;;;;;;;;;;5070175;28;19994;-60
2023/08/16 08:07:47;;;;;;;;;;;;;;;;;;5061175;28;19909;-60
2023/08/16 08:10:14;;;;;;;;;;;;;;;;;;5067242;28;19920;-59
2023/08/16 08:12:40;;;;;;;;;;;;;;;;;;5064094;28;20388;-59
2023/08/16 08:15:06;;;;;;;;;;;;;;;;;;5065848;28;19948;-59
2023/08/16 08:17:31;;;;;;;;;;;;;;;;;;5064116;28;20352;-59
2023/08/16 08:19:57;;;;;;;;;;;;;;;;;;5065723;28;19927;-60
2023/08/16 08:22:23;;;;;;;;;;;;;;;;;;5069083;28;20003;-62
2023/08/16 08:24:49;;;;;;;;;;;;;;;;;;5072185;28;19923;-59
2023/08/16 08:27:15;;;;;;;;;;;;;;;;;;5071937;28;19924;-59
2023/08/16 08:29:41;;;;;;;;;;;;;;;;;;5071863;28;20283;-60
2023/08/16 08:32:07;;;;;;;;;;;;;;;;;;5068118;28;19917;-60
2023/08/16 08:34:33;;;;;;;;;;;;;;;;;;5067885;28;19917;-58
2023/08/16 08:37:00;;;;;;;;;;;;;;;;;;5070736;28;19919;-58
2023/08/16 08:39:28;;;;;;;;;;;;;;;;;;5068706;28;19912;-59
2023/08/16 08:41:54;;;;;;;;;;;;;;;;;;5070770;28;19995;-58
2023/08/16 08:44:20;;;;;;;;;;;;;;;;;;5068914;28;20001;-58
2023/08/16 08:46:46;;;;;;;;;;;;;;;;;;5069379;28;19943;-59
2023/08/16 08:49:12;;;;;;;;;;;;;;;;;;5067270;28;19936;-58
2023/08/16 08:51:38;;;;;;;;;;;;;;;;;;5058122;28;20377;-58
2023/08/16 08:54:04;;;;;;;;;;;;;;;;;;5063710;28;19963;-60
2023/08/16 08:56:30;;;;;;;;;;;;;;;;;;5064051;28;20371;-58
2023/08/16 08:58:56;;;;;;;;;;;;;;;;;;5063519;28;19966;-58
2023/08/16 09:01:22;;;;;;;;;;;;;;;;;;5069696;28;20015;-60
2023/08/16 09:03:48;;;;;;;;;;;;;;;;;;5065167;28;20010;-59
2023/08/16 09:06:14;;;;;;;;;;;;;;;;;;5068369;28;19996;-59
2023/08/16 09:08:41;;;;;;;;;;;;;;;;;;5066229;28;19959;-70
2023/08/16 09:11:06;;;;;;;;;;;;;;;;;;5063248;28;19913;-68
2023/08/16 09:13:32;;;;;;;;;;;;;;;;;;5066168;28;20390;-70
2023/08/16 09:15:58;;;;;;;;;;;;;;;;;;5068301;28;19916;-66
2023/08/16 09:18:24;;;;;;;;;;;;;;;;;;5057335;28;20283;-69
2023/08/16 09:20:52;;;;;;;;;;;;;;;;;;5065868;28;19978;-69
2023/08/16 09:23:18;;;;;;;;;;;;;;;;;;5062029;28;19921;-70
2023/08/16 09:25:47;;;;;;;;;;;;;;;;;;5061341;28;19912;-70
2023/08/16 09:28:13;;;;;;;;;;;;;;;;;;5058503;28;19970;-69
2023/08/16 09:30:38;;;;;;;;;;;;;;;;;;5066491;28;20346;-68
2023/08/16 09:33:05;;;;;;;;;;;;;;;;;;5066797;28;19973;-70
2023/08/16 09:35:31;;;;;;;;;;;;;;;;;;5066210;28;19912;-70
2023/08/16 09:37:57;;;;;;;;;;;;;;;;;;5062054;28;20403;-69
2023/08/16 09:40:23;;;;;;;;;;;;;;;;;;5065773;28;19916;-69
2023/08/16 09:42:49;;;;;;;;;;;;;;;;;;5065631;28;20399;-68
2023/08/16 09:45:15;;;;;;;;;;;;;;;;;;5063758;28;19912;-70
2023/08/16 09:47:41;;;;;;;;;;;;;;;;;;5067859;28;19975;-70
2023/08/16 09:50:09;;;;;;;;;;;;;;;;;;5059527;28;19943;-71
2023/08/16 09:52:35;;;;;;;;;;;;;;;;;;5057316;28;19920;-70
2023/08/16 09:55:01;;;;;;;;;;;;;;;;;;5072235;28;19913;-70
2023/08/16 09:57:27;;;;;;;;;;;;;;;;;;5073485;28;19959;-69
2023/08/16 09:59:53;;;;;;;;;;;;;;;;;;5070569;28;20003;-68
2023/08/16 10:02:18;;;;;;;;;;;;;;;;;;5074739;28;19917;-70
2023/08/16 10:04:44;;;;;;;;;;;;;;;;;;5068843;28;20392;-70
2023/08/16 10:07:10;;;;;;;;;;;;;;;;;;5065086;28;19965;-69
2023/08/16 10:09:36;;;;;;;;;;;;;;;;;;5070982;28;20269;-65
2023/08/16 10:12:02;;;;;;;;;;;;;;;;;;5065498;28;19920;-71
2023/08/16 10:14:28;;;;;;;;;;;;;;;;;;5065795;28;19979;-70
2023/08/16 10:16:54;;;;;;;;;;;;;;;;;;5064572;28;19916;-63
2023/08/16 10:19:20;;;;;;;;;;;;;;;;;;5072414;28;20070;-70
2023/08/16 10:21:46;;;;;;;;;;;;;;;;;;5067185;28;19917;-68
2023/08/16 10:24:12;;;;;;;;;;;;;;;;;;5067180;28;19947;-69
2023/08/16 10:26:38;;;;;;;;;;;;;;;;;;5072411;28;19908;-69
2023/08/16 10:29:04;;;;;;;;;;;;;;;;;;5071867;28;20002;-69
2023/08/16 10:31:30;;;;;;;;;;;;;;;;;;5072652;28;19944;-65
2023/08/16 10:33:57;;;;;;;;;;;;;;;;;;5067951;28;20395;-70
2023/08/16 10:36:23;;;;;;;;;;;;;;;;;;5072934;28;19919;-69
2023/08/16 10:38:48;;;;;;;;;;;;;;;;;;5075342;28;19948;-69
2023/08/16 10:41:14;;;;;;;;;;;;;;;;;;5073470;28;20017;-70
2023/08/16 10:43:40;;;;;;;;;;;;;;;;;;5067607;28;20298;-68
2023/08/16 10:46:07;;;;;;;;;;;;;;;;;;5074953;28;20019;-69
2023/08/16 10:48:33;;;;;;;;;;;;;;;;;;5072107;28;19912;-70
2023/08/16 10:51:00;;;;;;;;;;;;;;;;;;5072351;28;19916;-71
2023/08/16 10:53:26;;;;;;;;;;;;;;;;;;5070255;28;19919;-65
2023/08/16 10:55:56;;;;;;;;;;;;;;;;;;5072591;28;20459;-71
2023/08/16 10:58:26;;;;;;;;;;;;;;;;;;5078987;28;19912;-71
2023/08/16 11:00:52;;;;;;;;;;;;;;;;;;5066674;28;19927;-71
2023/08/16 11:03:18;;;;;;;;;;;;;;;;;;5071183;28;19913;-71
2023/08/16 11:05:44;;;;;;;;;;;;;;;;;;5074154;28;19917;-71
2023/08/16 11:08:10;;;;;;;;;;;;;;;;;;5072131;28;20359;-70
2023/08/16 11:10:36;;;;;;;;;;;;;;;;;;5066405;28;19947;-71
2023/08/16 11:13:02;;;;;;;;;;;;;;;;;;5067385;28;19916;-71
2023/08/16 11:15:28;;;;;;;;;;;;;;;;;;5068578;28;19964;-71
2023/08/16 11:17:55;;;;;;;;;;;;;;;;;;5062333;28;19917;-70
2023/08/16 11:20:21;;;;;;;;;;;;;;;;;;5070227;28;20376;-72
2023/08/16 11:22:47;;;;;;;;;;;;;;;;;;5069733;28;20006;-71
2023/08/16 11:25:13;;;;;;;;;;;;;;;;;;5070918;28;19916;-71
2023/08/16 11:27:39;;;;;;;;;;;;;;;;;;5071855;28;19916;-63
2023/08/16 11:30:05;;;;;;;;;;;;;;;;;;5074768;28;19923;-62
2023/08/16 11:32:31;;;;;;;;;;;;;;;;;;5071587;28;19920;-62
2023/08/16 11:34:57;;;;;;;;;;;;;;;;;;5069348;28;19916;-62
2023/08/16 11:37:24;;;;;;;;;;;;;;;;;;5059118;28;19918;-63
2023/08/16 11:39:49;;;;;;;;;;;;;;;;;;5069386;28;19967;-62
2023/08/16 11:42:15;;;;;;;;;;;;;;;;;;5054078;28;21267;-63
2023/08/16 11:44:41;;;;;;;;;;;;;;;;;;5058596;28;19923;-63
2023/08/16 11:47:07;;;;;;;;;;;;;;;;;;5070174;28;19955;-63
2023/08/16 11:49:33;;;;;;;;;;;;;;;;;;5070034;28;19995;-63
2023/08/16 11:51:59;;;;;;;;;;;;;;;;;;5065033;28;19926;-63
2023/08/16 11:54:25;;;;;;;;;;;;;;;;;;5072197;28;20372;-63
2023/08/16 11:56:51;;;;;;;;;;;;;;;;;;5065406;28;20099;-63
2023/08/16 11:59:17;;;;;;;;;;;;;;;;;;5057109;28;20288;-63
2023/08/16 12:01:43;;;;;;;;;;;;;;;;;;5064523;28;19959;-63
2023/08/16 12:04:08;;;;;;;;;;;;;;;;;;5071527;28;19944;-63
2023/08/16 12:06:34;;;;;;;;;;;;;;;;;;5072555;28;19909;-63
2023/08/16 12:09:00;;;;;;;;;;;;;;;;;;5058469;28;20324;-63
2023/08/16 12:11:26;;;;;;;;;;;;;;;;;;5061249;28;20084;-63
2023/08/16 12:13:52;;;;;;;;;;;;;;;;;;5062475;28;19922;-63
2023/08/16 12:16:18;;;;;;;;;;;;;;;;;;5067618;28;19913;-63
2023/08/16 12:18:44;;;;;;;;;;;;;;;;;;5062334;28;19931;-63
2023/08/16 12:21:10;;;;;;;;;;;;;;;;;;5065957;28;19959;-63
2023/08/16 12:23:36;;;;;;;;;;;;;;;;;;5064699;28;20341;-63
2023/08/16 12:26:02;;;;;;;;;;;;;;;;;;5062138;28;19922;-63
2023/08/16 12:28:28;;;;;;;;;;;;;;;;;;5059602;28;20447;-63
2023/08/16 12:30:54;;;;;;;;;;;;;;;;;;5051011;28;19987;-63
2023/08/16 12:33:20;;;;;;;;;;;;;;;;;;5058226;28;19947;-63
2023/08/16 12:35:47;;;;;;;;;;;;;;;;;;5059242;28;19935;-63
2023/08/16 12:38:13;;;;;;;;;;;;;;;;;;5067456;28;20028;-63
2023/08/16 12:40:41;;;;;;;;;;;;;;;;;;5060163;28;19921;-64
2023/08/16 12:43:07;;;;;;;;;;;;;;;;;;5059232;28;19963;-63
2023/08/16 12:45:33;;;;;;;;;;;;;;;;;;5065290;28;20537;-63
2023/08/16 12:47:59;;;;;;;;;;;;;;;;;;5067968;28;20364;-71
2023/08/16 12:50:25;;;;;;;;;;;;;;;;;;5062084;28;19913;-72
2023/08/16 12:52:51;;;;;;;;;;;;;;;;;;5059307;28;20330;-71
2023/08/16 12:55:17;;;;;;;;;;;;;;;;;;5064649;28;20349;-71
2023/08/16 12:57:43;;;;;;;;;;;;;;;;;;5066951;28;19956;-70
2023/08/16 13:00:12;;;;;;;;;;;;;;;;;;5063634;28;19974;-71
2023/08/16 13:02:38;;;;;;;;;;;;;;;;;;5055580;28;21626;-71
2023/08/16 13:05:04;;;;;;;;;;;;;;;;;;5066321;28;19926;-71
2023/08/16 13:07:30;;;;;;;;;;;;;;;;;;5068571;28;20011;-71
2023/08/16 13:09:56;;;;;;;;;;;;;;;;;;5063849;28;21626;-69
2023/08/16 13:12:22;;;;;;;;;;;;;;;;;;5057024;28;20060;-72
2023/08/16 13:14:48;;;;;;;;;;;;;;;;;;5066913;28;19912;-69
2023/08/16 13:17:14;;;;;;;;;;;;;;;;;;5069769;28;20288;-70
2023/08/16 13:19:40;;;;;;;;;;;;;;;;;;5060993;28;19968;-71
2023/08/16 13:22:06;;;;;;;;;;;;;;;;;;5065122;28;19917;-72
2023/08/16 13:24:32;;;;;;;;;;;;;;;;;;5071522;28;19908;-72
2023/08/16 13:26:58;;;;;;;;;;;;;;;;;;5070987;28;20268;-72
2023/08/16 13:29:24;;;;;;;;;;;;;;;;;;5075101;28;19952;-72
2023/08/16 13:31:50;;;;;;;;;;;;;;;;;;5059871;28;19956;-67
2023/08/16 13:34:16;;;;;;;;;;;;;;;;;;5064064;28;19948;-72
2023/08/16 13:36:42;;;;;;;;;;;;;;;;;;5062311;28;20435;-71
2023/08/16 13:39:09;;;;;;;;;;;;;;;;;;5073498;28;19988;-72
2023/08/16 13:41:34;;;;;;;;;;;;;;;;;;5074899;28;19927;-72
2023/08/16 13:44:00;;;;;;;;;;;;;;;;;;5071892;28;19912;-68
2023/08/16 13:46:26;;;;;;;;;;;;;;;;;;5068441;28;20018;-71
2023/08/16 13:48:52;;;;;;;;;;;;;;;;;;5063964;28;19944;-71
2023/08/16 13:51:18;;;;;;;;;;;;;;;;;;5070490;28;19947;-71
2023/08/16 13:53:44;;;;;;;;;;;;;;;;;;5072531;28;19912;-71
2023/08/16 13:56:10;;;;;;;;;;;;;;;;;;5069656;28;19922;-71
2023/08/16 13:58:36;;;;;;;;;;;;;;;;;;5071575;28;19947;-65
2023/08/16 14:01:02;;;;;;;;;;;;;;;;;;5070807;28;20297;-65
2023/08/16 14:03:28;;;;;;;;;;;;;;;;;;5068275;28;20343;-65
2023/08/16 14:05:54;;;;;;;;;;;;;;;;;;5070376;28;20820;-65
2023/08/16 14:08:20;;;;;;;;;;;;;;;;;;5060065;28;19928;-71
2023/08/16 14:10:46;;;;;;;;;;;;;;;;;;5069346;28;19912;-72
2023/08/16 14:13:12;;;;;;;;;;;;;;;;;;5070183;28;19912;-70
2023/08/16 14:15:38;;;;;;;;;;;;;;;;;;5069554;28;19916;-70
2023/08/16 14:18:04;;;;;;;;;;;;;;;;;;5065077;28;19912;-71
2023/08/16 14:20:30;;;;;;;;;;;;;;;;;;5064656;28;20345;-72
2023/08/16 14:22:55;;;;;;;;;;;;;;;;;;5062130;28;19918;-72
2023/08/16 14:25:21;;;;;;;;;;;;;;;;;;5066949;28;19921;-72
2023/08/16 14:27:47;;;;;;;;;;;;;;;;;;5061832;28;19955;-64
2023/08/16 14:30:13;;;;;;;;;;;;;;;;;;5058100;28;19912;-71
2023/08/16 14:32:39;;;;;;;;;;;;;;;;;;5055356;28;19916;-71
2023/08/16 14:35:05;;;;;;;;;;;;;;;;;;5060830;28;19921;-72
2023/08/16 14:37:31;;;;;;;;;;;;;;;;;;5064636;28;19913;-71
2023/08/16 14:39:57;;;;;;;;;;;;;;;;;;5063927;28;19951;-71
2023/08/16 14:42:23;;;;;;;;;;;;;;;;;;5061759;28;19919;-70
2023/08/16 14:44:49;;;;;;;;;;;;;;;;;;5070152;28;19927;-71
2023/08/16 14:47:15;;;;;;;;;;;;;;;;;;5067274;28;20276;-72
2023/08/16 14:49:41;;;;;;;;;;;;;;;;;;5070462;28;19912;-71
2023/08/16 14:52:07;;;;;;;;;;;;;;;;;;5069612;28;19912;-72
2023/08/16 14:54:33;;;;;;;;;;;;;;;;;;5057666;28;19917;-72
2023/08/16 14:56:59;;;;;;;;;;;;;;;;;;5059396;28;19959;-69
2023/08/16 14:59:25;;;;;;;;;;;;;;;;;;5062918;28;19912;-69
2023/08/16 15:01:51;;;;;;;;;;;;;;;;;;5067052;28;20355;-71
2023/08/16 15:04:16;;;;;;;;;;;;;;;;;;5061542;28;19919;-69
2023/08/16 15:06:42;;;;;;;;;;;;;;;;;;5057005;28;19990;-70
2023/08/16 15:09:09;;;;;;;;;;;;;;;;;;5068853;28;20366;-65
2023/08/16 15:11:35;;;;;;;;;;;;;;;;;;5063145;28;21169;-65
2023/08/16 15:14:01;;;;;;;;;;;;;;;;;;5064770;28;19970;-65
2023/08/16 15:16:27;;;;;;;;;;;;;;;;;;5056547;28;19919;-65
2023/08/16 15:18:53;;;;;;;;;;;;;;;;;;5002492;28;1682581;-71
2023/08/16 15:21:19;;;;;;;;;;;;;;;;;;5063123;28;19947;-71
2023/08/16 15:23:46;;;;;;;;;;;;;;;;;;5062220;28;19915;-69
2023/08/16 15:26:12;;;;;;;;;;;;;;;;;;5068386;28;19993;-71
2023/08/16 15:28:37;;;;;;;;;;;;;;;;;;5061319;28;20341;-71
2023/08/16 15:31:03;;;;;;;;;;;;;;;;;;5058919;28;19913;-71
2023/08/16 15:33:29;;;;;;;;;;;;;;;;;;5059010;28;19921;-70
2023/08/16 15:35:55;;;;;;;;;;;;;;;;;;5069673;28;19912;-71
2023/08/16 15:38:21;;;;;;;;;;;;;;;;;;5064224;28;20321;-70
2023/08/16 15:40:47;;;;;;;;;;;;;;;;;;5069718;28;19951;-70
2023/08/16 15:43:13;;;;;;;;;;;;;;;;;;5070286;28;20240;-71
2023/08/16 15:45:39;;;;;;;;;;;;;;;;;;5069476;28;19912;-71
2023/08/16 15:48:05;;;;;;;;;;;;;;;;;;5055933;28;19913;-70
2023/08/16 15:50:31;;;;;;;;;;;;;;;;;;5062154;28;20347;-67
2023/08/16 15:52:57;;;;;;;;;;;;;;;;;;5066066;28;19920;-70
2023/08/16 15:55:22;;;;;;;;;;;;;;;;;;5070317;28;19952;-65
2023/08/16 15:57:48;;;;;;;;;;;;;;;;;;5063064;28;19959;-69
2023/08/16 16:00:14;;;;;;;;;;;;;;;;;;5064385;28;19921;-70
2023/08/16 16:02:40;;;;;;;;;;;;;;;;;;5057960;28;19930;-70
2023/08/16 16:05:06;;;;;;;;;;;;;;;;;;5066426;28;20372;-70
2023/08/16 16:07:32;;;;;;;;;;;;;;;;;;5060442;28;19942;-70
2023/08/16 16:09:58;;;;;;;;;;;;;;;;;;5069279;28;19999;-70
2023/08/16 16:12:24;;;;;;;;;;;;;;;;;;5070354;28;19977;-68
2023/08/16 16:14:50;;;;;;;;;;;;;;;;;;5058407;28;19975;-71
2023/08/16 16:17:15;;;;;;;;;;;;;;;;;;5067584;28;19913;-65
2023/08/16 16:19:41;;;;;;;;;;;;;;;;;;5056751;28;19947;-65
2023/08/16 16:22:07;;;;;;;;;;;;;;;;;;5066001;28;20387;-64
2023/08/16 16:24:33;;;;;;;;;;;;;;;;;;5067885;28;19995;-65
2023/08/16 16:26:59;;;;;;;;;;;;;;;;;;5067702;28;19912;-59
2023/08/16 16:29:25;;;;;;;;;;;;;;;;;;5062918;28;20383;-62
2023/08/16 16:31:52;;;;;;;;;;;;;;;;;;5061071;28;19924;-59
2023/08/16 16:34:18;;;;;;;;;;;;;;;;;;5066135;28;19978;-59
2023/08/16 16:36:44;;;;;;;;;;;;;;;;;;5060643;28;20017;-60